sensor_id;sensor_type;location;lat;lon;timestamp;P1;durP1;ratioP1;P2;durP2;ratioP2
56051;SDS011;41919;42.648;23.384;2023-08-01T00:01:19;1.48;;;1.38;;
56051;SDS011;41919;42.648;23.384;2023-08-01T00:03:45;1.65;;;1.55;;
56051;SDS011;41919;42.648;23.384;2023-08-01T00:06:10;2.70;;;1.48;;
56051;SDS011;41919;42.648;23.384;2023-08-01T00:08:36;4.57;;;1.63;;
56051;SDS011;41919;42.648;23.384;2023-08-01T00:11:01;2.40;;;1.40;;
56051;SDS011;41919;42.648;23.384;2023-08-01T00:13:26;2.08;;;1.90;;
56051;SDS011;41919;42.648;23.384;2023-08-01T00:15:52;1.83;;;1.50;;
56051;SDS011;41919;42.648;23.384;2023-08-01T00:18:17;2.10;;;1.35;;
56051;SDS011;41919;42.648;23.384;2023-08-01T00:20:42;1.55;;;1.45;;
56051;SDS011;41919;42.648;23.384;2023-08-01T00:23:08;1.65;;;1.42;;
56051;SDS011;41919;42.648;23.384;2023-08-01T00:25:33;1.75;;;1.65;;
56051;SDS011;41919;42.648;23.384;2023-08-01T00:27:58;1.65;;;1.55;;
56051;SDS011;41919;42.648;23.384;2023-08-01T00:30:24;2.00;;;1.77;;
56051;SDS011;41919;42.648;23.384;2023-08-01T00:32:49;2.00;;;1.80;;
56051;SDS011;41919;42.648;23.384;2023-08-01T00:35:14;1.63;;;1.52;;
56051;SDS011;41919;42.648;23.384;2023-08-01T00:37:41;1.95;;;1.75;;
56051;SDS011;41919;42.648;23.384;2023-08-01T00:40:07;1.92;;;1.80;;
56051;SDS011;41919;42.648;23.384;2023-08-01T00:42:35;1.98;;;1.80;;
56051;SDS011;41919;42.648;23.384;2023-08-01T00:45:01;2.10;;;1.90;;
56051;SDS011;41919;42.648;23.384;2023-08-01T00:47:27;2.13;;;1.98;;
56051;SDS011;41919;42.648;23.384;2023-08-01T00:49:52;2.17;;;2.05;;
56051;SDS011;41919;42.648;23.384;2023-08-01T00:52:18;2.35;;;2.20;;
56051;SDS011;41919;42.648;23.384;2023-08-01T00:54:43;2.42;;;2.22;;
56051;SDS011;41919;42.648;23.384;2023-08-01T00:57:08;2.00;;;1.90;;
56051;SDS011;41919;42.648;23.384;2023-08-01T00:59:35;2.33;;;1.92;;
56051;SDS011;41919;42.648;23.384;2023-08-01T01:02:00;2.03;;;1.90;;
56051;SDS011;41919;42.648;23.384;2023-08-01T01:04:26;2.40;;;2.20;;
56051;SDS011;41919;42.648;23.384;2023-08-01T01:06:53;2.47;;;1.80;;
56051;SDS011;41919;42.648;23.384;2023-08-01T01:09:28;3.72;;;2.38;;
56051;SDS011;41919;42.648;23.384;2023-08-01T01:11:56;2.03;;;1.88;;
56051;SDS011;41919;42.648;23.384;2023-08-01T01:14:22;2.90;;;2.47;;
56051;SDS011;41919;42.648;23.384;2023-08-01T01:16:47;2.40;;;2.10;;
56051;SDS011;41919;42.648;23.384;2023-08-01T01:19:12;2.40;;;2.20;;
56051;SDS011;41919;42.648;23.384;2023-08-01T01:21:38;2.42;;;2.22;;
56051;SDS011;41919;42.648;23.384;2023-08-01T01:24:22;2.60;;;2.40;;
56051;SDS011;41919;42.648;23.384;2023-08-01T01:26:49;2.33;;;2.13;;
56051;SDS011;41919;42.648;23.384;2023-08-01T01:29:16;2.60;;;1.98;;
56051;SDS011;41919;42.648;23.384;2023-08-01T01:31:42;2.13;;;1.92;;
56051;SDS011;41919;42.648;23.384;2023-08-01T01:34:08;3.58;;;2.28;;
56051;SDS011;41919;42.648;23.384;2023-08-01T01:36:34;2.50;;;2.30;;
56051;SDS011;41919;42.648;23.384;2023-08-01T01:39:00;2.38;;;2.20;;
56051;SDS011;41919;42.648;23.384;2023-08-01T01:41:25;2.40;;;2.20;;
56051;SDS011;41919;42.648;23.384;2023-08-01T01:43:50;2.08;;;1.98;;
56051;SDS011;41919;42.648;23.384;2023-08-01T01:46:16;2.58;;;2.38;;
56051;SDS011;41919;42.648;23.384;2023-08-01T01:48:41;2.13;;;2.03;;
56051;SDS011;41919;42.648;23.384;2023-08-01T01:51:07;2.10;;;2.00;;
56051;SDS011;41919;42.648;23.384;2023-08-01T01:53:33;2.20;;;2.10;;
56051;SDS011;41919;42.648;23.384;2023-08-01T01:55:58;3.33;;;2.22;;
56051;SDS011;41919;42.648;23.384;2023-08-01T01:58:23;3.13;;;2.83;;
56051;SDS011;41919;42.648;23.384;2023-08-01T02:00:49;3.05;;;2.30;;
56051;SDS011;41919;42.648;23.384;2023-08-01T02:03:14;2.30;;;2.10;;
56051;SDS011;41919;42.648;23.384;2023-08-01T02:05:40;3.00;;;2.80;;
56051;SDS011;41919;42.648;23.384;2023-08-01T02:08:06;4.32;;;2.42;;
56051;SDS011;41919;42.648;23.384;2023-08-01T02:10:31;2.28;;;2.17;;
56051;SDS011;41919;42.648;23.384;2023-08-01T02:12:57;2.58;;;2.38;;
56051;SDS011;41919;42.648;23.384;2023-08-01T02:15:22;2.50;;;2.30;;
56051;SDS011;41919;42.648;23.384;2023-08-01T02:17:48;2.75;;;2.55;;
56051;SDS011;41919;42.648;23.384;2023-08-01T02:20:13;2.92;;;2.30;;
56051;SDS011;41919;42.648;23.384;2023-08-01T02:22:38;2.40;;;2.20;;
56051;SDS011;41919;42.648;23.384;2023-08-01T02:25:04;2.33;;;2.13;;
56051;SDS011;41919;42.648;23.384;2023-08-01T02:27:29;2.58;;;2.38;;
56051;SDS011;41919;42.648;23.384;2023-08-01T02:29:55;2.70;;;2.50;;
56051;SDS011;41919;42.648;23.384;2023-08-01T02:32:20;2.40;;;2.20;;
56051;SDS011;41919;42.648;23.384;2023-08-01T02:34:46;3.80;;;2.30;;
56051;SDS011;41919;42.648;23.384;2023-08-01T02:37:12;3.65;;;2.50;;
56051;SDS011;41919;42.648;23.384;2023-08-01T02:39:37;2.22;;;2.08;;
56051;SDS011;41919;42.648;23.384;2023-08-01T02:42:02;3.17;;;2.63;;
56051;SDS011;41919;42.648;23.384;2023-08-01T02:44:28;3.40;;;2.42;;
56051;SDS011;41919;42.648;23.384;2023-08-01T02:46:53;3.95;;;2.80;;
56051;SDS011;41919;42.648;23.384;2023-08-01T02:49:19;3.15;;;2.60;;
56051;SDS011;41919;42.648;23.384;2023-08-01T02:51:44;3.05;;;2.70;;
56051;SDS011;41919;42.648;23.384;2023-08-01T02:54:10;3.40;;;2.42;;
56051;SDS011;41919;42.648;23.384;2023-08-01T02:56:35;4.93;;;2.50;;
56051;SDS011;41919;42.648;23.384;2023-08-01T02:59:05;4.05;;;2.20;;
56051;SDS011;41919;42.648;23.384;2023-08-01T03:01:34;2.90;;;2.70;;
56051;SDS011;41919;42.648;23.384;2023-08-01T03:04:04;4.78;;;2.63;;
56051;SDS011;41919;42.648;23.384;2023-08-01T03:06:32;3.80;;;2.63;;
56051;SDS011;41919;42.648;23.384;2023-08-01T03:08:57;2.88;;;2.40;;
56051;SDS011;41919;42.648;23.384;2023-08-01T03:11:23;2.60;;;2.40;;
56051;SDS011;41919;42.648;23.384;2023-08-01T03:13:48;3.65;;;2.20;;
56051;SDS011;41919;42.648;23.384;2023-08-01T03:16:13;3.78;;;2.75;;
56051;SDS011;41919;42.648;23.384;2023-08-01T03:18:39;4.40;;;3.00;;
56051;SDS011;41919;42.648;23.384;2023-08-01T03:21:04;2.47;;;2.33;;
56051;SDS011;41919;42.648;23.384;2023-08-01T03:23:29;2.92;;;2.63;;
56051;SDS011;41919;42.648;23.384;2023-08-01T03:25:55;2.88;;;2.60;;
56051;SDS011;41919;42.648;23.384;2023-08-01T03:28:20;2.65;;;2.35;;
56051;SDS011;41919;42.648;23.384;2023-08-01T03:30:46;2.85;;;2.65;;
56051;SDS011;41919;42.648;23.384;2023-08-01T03:33:14;2.55;;;2.35;;
56051;SDS011;41919;42.648;23.384;2023-08-01T03:35:40;2.60;;;2.40;;
56051;SDS011;41919;42.648;23.384;2023-08-01T03:38:06;4.45;;;2.60;;
56051;SDS011;41919;42.648;23.384;2023-08-01T03:40:31;3.30;;;3.00;;
56051;SDS011;41919;42.648;23.384;2023-08-01T03:42:57;7.10;;;3.47;;
56051;SDS011;41919;42.648;23.384;2023-08-01T03:45:22;5.80;;;3.75;;
56051;SDS011;41919;42.648;23.384;2023-08-01T03:47:47;5.93;;;4.40;;
56051;SDS011;41919;42.648;23.384;2023-08-01T03:50:13;6.25;;;4.75;;
56051;SDS011;41919;42.648;23.384;2023-08-01T03:52:38;5.53;;;4.88;;
56051;SDS011;41919;42.648;23.384;2023-08-01T03:55:04;6.60;;;2.80;;
56051;SDS011;41919;42.648;23.384;2023-08-01T03:57:30;3.25;;;2.65;;
56051;SDS011;41919;42.648;23.384;2023-08-01T03:59:58;4.78;;;2.40;;
56051;SDS011;41919;42.648;23.384;2023-08-01T04:02:23;3.75;;;2.72;;
56051;SDS011;41919;42.648;23.384;2023-08-01T04:04:49;2.63;;;2.42;;
56051;SDS011;41919;42.648;23.384;2023-08-01T04:07:14;4.82;;;2.70;;
56051;SDS011;41919;42.648;23.384;2023-08-01T04:09:40;2.80;;;2.47;;
56051;SDS011;41919;42.648;23.384;2023-08-01T04:12:05;2.90;;;2.60;;
56051;SDS011;41919;42.648;23.384;2023-08-01T04:14:31;3.40;;;2.63;;
56051;SDS011;41919;42.648;23.384;2023-08-01T04:16:57;3.13;;;2.80;;
56051;SDS011;41919;42.648;23.384;2023-08-01T04:19:22;7.65;;;3.00;;
56051;SDS011;41919;42.648;23.384;2023-08-01T04:21:48;3.85;;;2.70;;
56051;SDS011;41919;42.648;23.384;2023-08-01T04:24:13;3.28;;;2.97;;
56051;SDS011;41919;42.648;23.384;2023-08-01T04:26:39;4.75;;;3.65;;
56051;SDS011;41919;42.648;23.384;2023-08-01T04:29:04;5.57;;;3.75;;
56051;SDS011;41919;42.648;23.384;2023-08-01T04:31:30;6.25;;;4.03;;
56051;SDS011;41919;42.648;23.384;2023-08-01T04:33:55;6.72;;;4.50;;
56051;SDS011;41919;42.648;23.384;2023-08-01T04:36:20;6.03;;;4.30;;
56051;SDS011;41919;42.648;23.384;2023-08-01T04:38:46;7.53;;;4.43;;
56051;SDS011;41919;42.648;23.384;2023-08-01T04:41:12;6.70;;;4.20;;
56051;SDS011;41919;42.648;23.384;2023-08-01T04:43:37;5.50;;;3.70;;
56051;SDS011;41919;42.648;23.384;2023-08-01T04:46:02;4.75;;;4.13;;
56051;SDS011;41919;42.648;23.384;2023-08-01T04:48:28;5.72;;;4.07;;
56051;SDS011;41919;42.648;23.384;2023-08-01T04:50:53;5.07;;;3.97;;
56051;SDS011;41919;42.648;23.384;2023-08-01T04:53:18;6.10;;;3.90;;
56051;SDS011;41919;42.648;23.384;2023-08-01T04:55:44;5.03;;;3.85;;
56051;SDS011;41919;42.648;23.384;2023-08-01T04:58:09;4.68;;;4.05;;
56051;SDS011;41919;42.648;23.384;2023-08-01T05:00:34;4.65;;;3.97;;
56051;SDS011;41919;42.648;23.384;2023-08-01T05:03:00;5.45;;;4.00;;
56051;SDS011;41919;42.648;23.384;2023-08-01T05:05:26;4.13;;;3.13;;
56051;SDS011;41919;42.648;23.384;2023-08-01T05:07:51;5.93;;;2.97;;
56051;SDS011;41919;42.648;23.384;2023-08-01T05:10:16;3.55;;;2.90;;
56051;SDS011;41919;42.648;23.384;2023-08-01T05:12:42;3.58;;;3.17;;
56051;SDS011;41919;42.648;23.384;2023-08-01T05:15:07;3.65;;;3.17;;
56051;SDS011;41919;42.648;23.384;2023-08-01T05:17:33;3.20;;;2.90;;
56051;SDS011;41919;42.648;23.384;2023-08-01T05:19:58;2.60;;;2.40;;
56051;SDS011;41919;42.648;23.384;2023-08-01T05:22:24;3.03;;;2.42;;
56051;SDS011;41919;42.648;23.384;2023-08-01T05:24:49;3.20;;;2.35;;
56051;SDS011;41919;42.648;23.384;2023-08-01T05:27:14;2.67;;;2.25;;
56051;SDS011;41919;42.648;23.384;2023-08-01T05:29:40;4.13;;;3.10;;
56051;SDS011;41919;42.648;23.384;2023-08-01T05:32:05;3.30;;;2.90;;
56051;SDS011;41919;42.648;23.384;2023-08-01T05:34:31;4.20;;;2.63;;
56051;SDS011;41919;42.648;23.384;2023-08-01T05:36:56;3.85;;;2.30;;
56051;SDS011;41919;42.648;23.384;2023-08-01T05:39:22;2.90;;;2.47;;
56051;SDS011;41919;42.648;23.384;2023-08-01T05:41:47;3.10;;;2.40;;
56051;SDS011;41919;42.648;23.384;2023-08-01T05:44:12;3.50;;;2.83;;
56051;SDS011;41919;42.648;23.384;2023-08-01T05:46:38;2.92;;;2.63;;
56051;SDS011;41919;42.648;23.384;2023-08-01T05:49:03;3.80;;;2.50;;
56051;SDS011;41919;42.648;23.384;2023-08-01T05:51:29;2.92;;;2.60;;
56051;SDS011;41919;42.648;23.384;2023-08-01T05:53:54;4.85;;;2.42;;
56051;SDS011;41919;42.648;23.384;2023-08-01T05:56:19;2.97;;;2.67;;
56051;SDS011;41919;42.648;23.384;2023-08-01T05:58:45;5.28;;;2.65;;
56051;SDS011;41919;42.648;23.384;2023-08-01T06:01:10;3.35;;;2.42;;
56051;SDS011;41919;42.648;23.384;2023-08-01T06:03:36;3.28;;;2.53;;
56051;SDS011;41919;42.648;23.384;2023-08-01T06:06:02;3.80;;;2.60;;
56051;SDS011;41919;42.648;23.384;2023-08-01T06:08:28;5.78;;;2.53;;
56051;SDS011;41919;42.648;23.384;2023-08-01T06:10:53;3.13;;;2.13;;
56051;SDS011;41919;42.648;23.384;2023-08-01T06:13:19;2.85;;;2.40;;
56051;SDS011;41919;42.648;23.384;2023-08-01T06:15:44;4.18;;;3.40;;
56051;SDS011;41919;42.648;23.384;2023-08-01T06:18:10;3.97;;;2.70;;
56051;SDS011;41919;42.648;23.384;2023-08-01T06:20:36;2.65;;;2.40;;
56051;SDS011;41919;42.648;23.384;2023-08-01T06:23:02;6.13;;;2.40;;
56051;SDS011;41919;42.648;23.384;2023-08-01T06:25:27;6.50;;;2.20;;
56051;SDS011;41919;42.648;23.384;2023-08-01T06:27:53;3.83;;;2.42;;
56051;SDS011;41919;42.648;23.384;2023-08-01T06:30:18;3.40;;;2.33;;
56051;SDS011;41919;42.648;23.384;2023-08-01T06:32:43;3.33;;;2.67;;
56051;SDS011;41919;42.648;23.384;2023-08-01T06:35:09;3.33;;;2.50;;
56051;SDS011;41919;42.648;23.384;2023-08-01T06:37:34;6.57;;;2.70;;
56051;SDS011;41919;42.648;23.384;2023-08-01T06:40:00;5.97;;;3.22;;
56051;SDS011;41919;42.648;23.384;2023-08-01T06:42:26;6.25;;;2.75;;
56051;SDS011;41919;42.648;23.384;2023-08-01T06:44:51;5.45;;;2.90;;
56051;SDS011;41919;42.648;23.384;2023-08-01T06:47:17;4.30;;;2.50;;
56051;SDS011;41919;42.648;23.384;2023-08-01T06:49:42;5.95;;;3.05;;
56051;SDS011;41919;42.648;23.384;2023-08-01T06:52:08;4.88;;;2.92;;
56051;SDS011;41919;42.648;23.384;2023-08-01T06:54:34;4.88;;;2.50;;
56051;SDS011;41919;42.648;23.384;2023-08-01T06:56:59;3.33;;;3.00;;
56051;SDS011;41919;42.648;23.384;2023-08-01T06:59:25;3.53;;;3.05;;
56051;SDS011;41919;42.648;23.384;2023-08-01T07:01:51;4.63;;;2.80;;
56051;SDS011;41919;42.648;23.384;2023-08-01T07:04:16;6.40;;;2.95;;
56051;SDS011;41919;42.648;23.384;2023-08-01T07:06:41;3.08;;;2.40;;
56051;SDS011;41919;42.648;23.384;2023-08-01T07:09:07;5.43;;;2.35;;
56051;SDS011;41919;42.648;23.384;2023-08-01T07:11:32;4.45;;;3.20;;
56051;SDS011;41919;42.648;23.384;2023-08-01T07:13:58;3.47;;;2.85;;
56051;SDS011;41919;42.648;23.384;2023-08-01T07:16:23;5.10;;;2.70;;
56051;SDS011;41919;42.648;23.384;2023-08-01T07:18:49;5.18;;;3.28;;
56051;SDS011;41919;42.648;23.384;2023-08-01T07:21:15;6.47;;;2.97;;
56051;SDS011;41919;42.648;23.384;2023-08-01T07:23:41;3.85;;;2.53;;
56051;SDS011;41919;42.648;23.384;2023-08-01T07:26:07;4.90;;;2.53;;
56051;SDS011;41919;42.648;23.384;2023-08-01T07:28:32;4.95;;;2.38;;
56051;SDS011;41919;42.648;23.384;2023-08-01T07:30:58;5.68;;;2.72;;
56051;SDS011;41919;42.648;23.384;2023-08-01T07:33:24;2.92;;;2.63;;
56051;SDS011;41919;42.648;23.384;2023-08-01T07:35:50;4.03;;;2.55;;
56051;SDS011;41919;42.648;23.384;2023-08-01T07:38:15;5.15;;;2.80;;
56051;SDS011;41919;42.648;23.384;2023-08-01T07:40:40;4.90;;;2.60;;
56051;SDS011;41919;42.648;23.384;2023-08-01T07:43:06;4.72;;;2.50;;
56051;SDS011;41919;42.648;23.384;2023-08-01T07:45:33;3.90;;;2.10;;
56051;SDS011;41919;42.648;23.384;2023-08-01T07:47:59;2.97;;;2.65;;
56051;SDS011;41919;42.648;23.384;2023-08-01T07:50:25;2.75;;;2.47;;
56051;SDS011;41919;42.648;23.384;2023-08-01T07:52:51;3.55;;;2.90;;
56051;SDS011;41919;42.648;23.384;2023-08-01T07:55:16;3.95;;;2.70;;
56051;SDS011;41919;42.648;23.384;2023-08-01T07:57:43;4.65;;;2.92;;
56051;SDS011;41919;42.648;23.384;2023-08-01T08:00:09;4.70;;;2.58;;
56051;SDS011;41919;42.648;23.384;2023-08-01T08:02:36;5.28;;;3.10;;
56051;SDS011;41919;42.648;23.384;2023-08-01T08:05:01;4.65;;;2.58;;
56051;SDS011;41919;42.648;23.384;2023-08-01T08:07:27;2.83;;;2.63;;
56051;SDS011;41919;42.648;23.384;2023-08-01T08:09:52;3.97;;;2.72;;
56051;SDS011;41919;42.648;23.384;2023-08-01T08:12:20;5.18;;;2.85;;
56051;SDS011;41919;42.648;23.384;2023-08-01T08:14:45;2.67;;;2.33;;
56051;SDS011;41919;42.648;23.384;2023-08-01T08:17:11;5.03;;;3.53;;
56051;SDS011;41919;42.648;23.384;2023-08-01T08:19:36;7.43;;;2.80;;
56051;SDS011;41919;42.648;23.384;2023-08-01T08:22:02;4.80;;;2.65;;
56051;SDS011;41919;42.648;23.384;2023-08-01T08:24:28;4.78;;;2.60;;
56051;SDS011;41919;42.648;23.384;2023-08-01T08:26:53;5.30;;;3.28;;
56051;SDS011;41919;42.648;23.384;2023-08-01T08:29:19;3.78;;;2.53;;
56051;SDS011;41919;42.648;23.384;2023-08-01T08:31:44;3.05;;;2.47;;
56051;SDS011;41919;42.648;23.384;2023-08-01T08:34:09;4.85;;;2.30;;
56051;SDS011;41919;42.648;23.384;2023-08-01T08:36:35;4.50;;;4.10;;
56051;SDS011;41919;42.648;23.384;2023-08-01T08:39:00;6.00;;;2.50;;
56051;SDS011;41919;42.648;23.384;2023-08-01T08:41:26;4.88;;;2.30;;
56051;SDS011;41919;42.648;23.384;2023-08-01T08:43:53;4.10;;;2.38;;
56051;SDS011;41919;42.648;23.384;2023-08-01T08:46:21;3.83;;;2.53;;
56051;SDS011;41919;42.648;23.384;2023-08-01T08:48:52;4.70;;;2.75;;
56051;SDS011;41919;42.648;23.384;2023-08-01T08:51:19;5.72;;;2.92;;
56051;SDS011;41919;42.648;23.384;2023-08-01T08:53:46;3.58;;;2.47;;
56051;SDS011;41919;42.648;23.384;2023-08-01T08:56:12;6.22;;;2.42;;
56051;SDS011;41919;42.648;23.384;2023-08-01T08:58:39;3.42;;;2.10;;
56051;SDS011;41919;42.648;23.384;2023-08-01T09:01:06;5.68;;;2.72;;
56051;SDS011;41919;42.648;23.384;2023-08-01T09:03:32;2.90;;;2.30;;
56051;SDS011;41919;42.648;23.384;2023-08-01T09:06:06;5.00;;;2.35;;
56051;SDS011;41919;42.648;23.384;2023-08-01T09:08:35;2.83;;;2.50;;
56051;SDS011;41919;42.648;23.384;2023-08-01T09:11:04;2.65;;;2.38;;
56051;SDS011;41919;42.648;23.384;2023-08-01T09:13:30;3.55;;;2.33;;
56051;SDS011;41919;42.648;23.384;2023-08-01T09:15:56;4.35;;;2.40;;
56051;SDS011;41919;42.648;23.384;2023-08-01T09:18:21;3.15;;;2.35;;
56051;SDS011;41919;42.648;23.384;2023-08-01T09:20:49;3.20;;;2.90;;
56051;SDS011;41919;42.648;23.384;2023-08-01T09:23:15;3.85;;;2.58;;
56051;SDS011;41919;42.648;23.384;2023-08-01T09:25:42;3.35;;;2.40;;
56051;SDS011;41919;42.648;23.384;2023-08-01T09:28:21;3.65;;;2.45;;
56051;SDS011;41919;42.648;23.384;2023-08-01T09:30:52;4.15;;;2.42;;
56051;SDS011;41919;42.648;23.384;2023-08-01T09:33:20;6.47;;;3.47;;
56051;SDS011;41919;42.648;23.384;2023-08-01T09:35:48;3.15;;;2.70;;
56051;SDS011;41919;42.648;23.384;2023-08-01T09:38:16;3.05;;;2.30;;
56051;SDS011;41919;42.648;23.384;2023-08-01T09:40:43;3.45;;;2.65;;
56051;SDS011;41919;42.648;23.384;2023-08-01T09:43:10;3.67;;;2.70;;
56051;SDS011;41919;42.648;23.384;2023-08-01T09:45:35;4.40;;;2.67;;
56051;SDS011;41919;42.648;23.384;2023-08-01T09:48:01;3.45;;;2.42;;
56051;SDS011;41919;42.648;23.384;2023-08-01T09:50:27;2.40;;;2.20;;
56051;SDS011;41919;42.648;23.384;2023-08-01T09:52:52;2.88;;;2.60;;
56051;SDS011;41919;42.648;23.384;2023-08-01T09:55:31;4.07;;;2.58;;
56051;SDS011;41919;42.648;23.384;2023-08-01T09:57:58;3.83;;;2.53;;
56051;SDS011;41919;42.648;23.384;2023-08-01T10:00:27;3.88;;;2.70;;
56051;SDS011;41919;42.648;23.384;2023-08-01T10:02:54;5.25;;;2.80;;
56051;SDS011;41919;42.648;23.384;2023-08-01T10:05:28;4.32;;;2.88;;
56051;SDS011;41919;42.648;23.384;2023-08-01T10:07:55;3.40;;;2.90;;
56051;SDS011;41919;42.648;23.384;2023-08-01T10:10:24;3.10;;;2.90;;
56051;SDS011;41919;42.648;23.384;2023-08-01T10:12:50;3.97;;;2.85;;
56051;SDS011;41919;42.648;23.384;2023-08-01T10:15:15;7.70;;;2.70;;
56051;SDS011;41919;42.648;23.384;2023-08-01T10:17:41;3.75;;;2.90;;
56051;SDS011;41919;42.648;23.384;2023-08-01T10:20:07;4.90;;;3.15;;
56051;SDS011;41919;42.648;23.384;2023-08-01T10:22:33;3.85;;;3.05;;
56051;SDS011;41919;42.648;23.384;2023-08-01T10:24:59;4.50;;;3.13;;
56051;SDS011;41919;42.648;23.384;2023-08-01T10:27:25;6.50;;;3.70;;
56051;SDS011;41919;42.648;23.384;2023-08-01T10:29:57;3.00;;;2.80;;
56051;SDS011;41919;42.648;23.384;2023-08-01T10:32:33;3.30;;;2.80;;
56051;SDS011;41919;42.648;23.384;2023-08-01T10:35:03;3.50;;;3.20;;
56051;SDS011;41919;42.648;23.384;2023-08-01T10:37:45;3.53;;;2.88;;
56051;SDS011;41919;42.648;23.384;2023-08-01T10:40:14;4.22;;;3.05;;
56051;SDS011;41919;42.648;23.384;2023-08-01T10:42:40;5.40;;;3.47;;
56051;SDS011;41919;42.648;23.384;2023-08-01T10:45:07;4.13;;;3.40;;
56051;SDS011;41919;42.648;23.384;2023-08-01T10:47:44;4.82;;;2.95;;
56051;SDS011;41919;42.648;23.384;2023-08-01T10:50:16;3.78;;;3.30;;
56051;SDS011;41919;42.648;23.384;2023-08-01T10:52:42;3.40;;;2.70;;
56051;SDS011;41919;42.648;23.384;2023-08-01T10:55:09;5.00;;;3.08;;
56051;SDS011;41919;42.648;23.384;2023-08-01T10:57:36;4.78;;;3.90;;
56051;SDS011;41919;42.648;23.384;2023-08-01T11:00:03;4.55;;;3.15;;
56051;SDS011;41919;42.648;23.384;2023-08-01T11:02:35;8.23;;;3.13;;
56051;SDS011;41919;42.648;23.384;2023-08-01T11:05:04;6.22;;;3.38;;
56051;SDS011;41919;42.648;23.384;2023-08-01T11:07:32;5.35;;;3.22;;
56051;SDS011;41919;42.648;23.384;2023-08-01T11:10:16;4.07;;;3.40;;
56051;SDS011;41919;42.648;23.384;2023-08-01T11:12:42;3.20;;;3.00;;
56051;SDS011;41919;42.648;23.384;2023-08-01T11:15:09;4.50;;;3.25;;
56051;SDS011;41919;42.648;23.384;2023-08-01T11:17:36;3.45;;;3.15;;
56051;SDS011;41919;42.648;23.384;2023-08-01T11:20:06;3.55;;;3.00;;
56051;SDS011;41919;42.648;23.384;2023-08-01T11:22:34;4.28;;;3.10;;
56051;SDS011;41919;42.648;23.384;2023-08-01T11:25:00;3.80;;;3.20;;
56051;SDS011;41919;42.648;23.384;2023-08-01T11:27:26;7.50;;;3.72;;
56051;SDS011;41919;42.648;23.384;2023-08-01T11:29:52;5.63;;;2.65;;
56051;SDS011;41919;42.648;23.384;2023-08-01T11:32:18;3.28;;;2.80;;
56051;SDS011;41919;42.648;23.384;2023-08-01T11:34:45;4.82;;;3.20;;
56051;SDS011;41919;42.648;23.384;2023-08-01T11:37:11;4.60;;;3.05;;
56051;SDS011;41919;42.648;23.384;2023-08-01T11:39:38;6.03;;;3.08;;
56051;SDS011;41919;42.648;23.384;2023-08-01T11:42:04;4.88;;;2.95;;
56051;SDS011;41919;42.648;23.384;2023-08-01T11:44:30;4.13;;;3.40;;
56051;SDS011;41919;42.648;23.384;2023-08-01T11:46:55;6.03;;;3.08;;
56051;SDS011;41919;42.648;23.384;2023-08-01T11:49:21;5.53;;;2.80;;
56051;SDS011;41919;42.648;23.384;2023-08-01T11:51:47;3.70;;;3.00;;
56051;SDS011;41919;42.648;23.384;2023-08-01T11:54:13;4.22;;;3.08;;
56051;SDS011;41919;42.648;23.384;2023-08-01T11:56:39;3.28;;;2.63;;
56051;SDS011;41919;42.648;23.384;2023-08-01T11:59:13;4.63;;;3.00;;
56051;SDS011;41919;42.648;23.384;2023-08-01T12:01:44;3.95;;;3.00;;
56051;SDS011;41919;42.648;23.384;2023-08-01T12:04:10;3.65;;;2.40;;
56051;SDS011;41919;42.648;23.384;2023-08-01T12:06:36;3.88;;;3.08;;
56051;SDS011;41919;42.648;23.384;2023-08-01T12:09:11;3.10;;;2.80;;
56051;SDS011;41919;42.648;23.384;2023-08-01T12:11:38;3.30;;;3.00;;
56051;SDS011;41919;42.648;23.384;2023-08-01T12:14:09;4.20;;;2.97;;
56051;SDS011;41919;42.648;23.384;2023-08-01T12:16:40;4.68;;;3.28;;
56051;SDS011;41919;42.648;23.384;2023-08-01T12:19:09;3.08;;;2.88;;
56051;SDS011;41919;42.648;23.384;2023-08-01T12:21:35;5.40;;;3.10;;
56051;SDS011;41919;42.648;23.384;2023-08-01T12:24:02;3.40;;;3.10;;
56051;SDS011;41919;42.648;23.384;2023-08-01T12:26:28;5.00;;;2.80;;
56051;SDS011;41919;42.648;23.384;2023-08-01T12:28:53;3.38;;;2.97;;
56051;SDS011;41919;42.648;23.384;2023-08-01T12:31:19;3.40;;;3.03;;
56051;SDS011;41919;42.648;23.384;2023-08-01T12:33:45;3.28;;;2.95;;
56051;SDS011;41919;42.648;23.384;2023-08-01T12:36:11;5.63;;;2.88;;
56051;SDS011;41919;42.648;23.384;2023-08-01T12:38:37;5.05;;;2.70;;
56051;SDS011;41919;42.648;23.384;2023-08-01T12:41:03;3.33;;;2.97;;
56051;SDS011;41919;42.648;23.384;2023-08-01T12:43:28;4.32;;;3.05;;
56051;SDS011;41919;42.648;23.384;2023-08-01T12:45:54;3.72;;;3.25;;
56051;SDS011;41919;42.648;23.384;2023-08-01T12:48:20;4.05;;;3.10;;
56051;SDS011;41919;42.648;23.384;2023-08-01T12:50:46;3.80;;;2.85;;
56051;SDS011;41919;42.648;23.384;2023-08-01T12:53:13;4.22;;;2.88;;
56051;SDS011;41919;42.648;23.384;2023-08-01T12:55:38;3.33;;;3.03;;
56051;SDS011;41919;42.648;23.384;2023-08-01T12:58:07;4.93;;;2.60;;
56051;SDS011;41919;42.648;23.384;2023-08-01T13:00:32;7.50;;;3.50;;
56051;SDS011;41919;42.648;23.384;2023-08-01T13:02:57;3.90;;;2.72;;
56051;SDS011;41919;42.648;23.384;2023-08-01T13:05:23;3.22;;;2.95;;
56051;SDS011;41919;42.648;23.384;2023-08-01T13:07:48;7.03;;;3.22;;
56051;SDS011;41919;42.648;23.384;2023-08-01T13:10:14;5.07;;;2.80;;
56051;SDS011;41919;42.648;23.384;2023-08-01T13:12:40;3.45;;;2.97;;
56051;SDS011;41919;42.648;23.384;2023-08-01T13:15:05;3.47;;;2.85;;
56051;SDS011;41919;42.648;23.384;2023-08-01T13:17:31;3.90;;;2.90;;
56051;SDS011;41919;42.648;23.384;2023-08-01T13:19:56;3.70;;;2.70;;
56051;SDS011;41919;42.648;23.384;2023-08-01T13:22:22;5.45;;;3.15;;
56051;SDS011;41919;42.648;23.384;2023-08-01T13:24:47;2.97;;;2.78;;
56051;SDS011;41919;42.648;23.384;2023-08-01T13:27:13;4.50;;;2.50;;
56051;SDS011;41919;42.648;23.384;2023-08-01T13:29:38;4.75;;;2.40;;
56051;SDS011;41919;42.648;23.384;2023-08-01T13:32:05;4.45;;;2.80;;
56051;SDS011;41919;42.648;23.384;2023-08-01T13:34:31;4.35;;;2.60;;
56051;SDS011;41919;42.648;23.384;2023-08-01T13:36:57;4.10;;;2.70;;
56051;SDS011;41919;42.648;23.384;2023-08-01T13:39:22;3.97;;;2.88;;
56051;SDS011;41919;42.648;23.384;2023-08-01T13:41:48;4.35;;;2.90;;
56051;SDS011;41919;42.648;23.384;2023-08-01T13:44:13;2.65;;;2.45;;
56051;SDS011;41919;42.648;23.384;2023-08-01T13:46:38;2.53;;;1.80;;
56051;SDS011;41919;42.648;23.384;2023-08-01T13:49:04;3.33;;;2.60;;
56051;SDS011;41919;42.648;23.384;2023-08-01T13:51:32;2.50;;;2.25;;
56051;SDS011;41919;42.648;23.384;2023-08-01T13:53:58;2.80;;;2.28;;
56051;SDS011;41919;42.648;23.384;2023-08-01T13:56:24;3.78;;;2.20;;
56051;SDS011;41919;42.648;23.384;2023-08-01T13:58:50;2.90;;;2.20;;
56051;SDS011;41919;42.648;23.384;2023-08-01T14:01:16;2.85;;;2.65;;
56051;SDS011;41919;42.648;23.384;2023-08-01T14:03:43;3.58;;;2.20;;
56051;SDS011;41919;42.648;23.384;2023-08-01T14:06:09;2.88;;;2.50;;
56051;SDS011;41919;42.648;23.384;2023-08-01T14:08:36;6.03;;;2.78;;
56051;SDS011;41919;42.648;23.384;2023-08-01T14:11:03;3.70;;;2.75;;
56051;SDS011;41919;42.648;23.384;2023-08-01T14:13:30;6.68;;;3.10;;
56051;SDS011;41919;42.648;23.384;2023-08-01T14:15:55;4.43;;;2.90;;
56051;SDS011;41919;42.648;23.384;2023-08-01T14:18:20;5.20;;;2.50;;
56051;SDS011;41919;42.648;23.384;2023-08-01T14:20:46;3.45;;;2.22;;
56051;SDS011;41919;42.648;23.384;2023-08-01T14:23:11;4.72;;;2.78;;
56051;SDS011;41919;42.648;23.384;2023-08-01T14:25:37;4.50;;;2.70;;
56051;SDS011;41919;42.648;23.384;2023-08-01T14:28:03;5.80;;;2.55;;